Time;durP1;ratioP1;P1;durP2;ratioP2;P2;SDS_P1;SDS_P2;PMS_P1;PMS_P2;Temp;Humidity;BMP_temperature;BMP_pressure;BME280_temperature;BME280_humidity;BME280_pressure;Samples;Min_cycle;Max_cycle;Signal;HPM_P1;HPM_P2
2021/10/23 00:00:56;;;;;;;5.10;2.20;;;;;;;6.81;58.59;98961.02;112723;1192;60981;-83
2021/10/23 00:03:23;;;;;;;5.90;2.30;;;;;;;6.85;58.64;98965.06;112415;1193;63702;-82
2021/10/23 00:05:50;;;;;;;4.30;2.10;;;;;;;6.88;58.65;98963.84;112635;1193;61051;-82
2021/10/23 00:08:16;;;;;;;4.90;2.10;;;;;;;6.91;58.66;98966.15;112679;1192;60927;-82
2021/10/23 00:10:43;;;;;;;4.90;2.60;;;;;;;6.94;58.72;98969.50;112419;1192;61094;-82
2021/10/23 00:13:09;;;;;;;8.50;2.40;;;;;;;6.98;58.81;98971.80;112677;1192;60999;-84
2021/10/23 00:15:36;;;;;;;5.70;2.30;;;;;;;7.01;58.75;98974.10;112637;1193;63813;-84
2021/10/23 00:18:03;;;;;;;8.60;3.00;;;;;;;7.04;58.79;98976.24;112574;1193;61042;-84
2021/10/23 00:20:30;;;;;;;7.00;2.50;;;;;;;7.06;58.81;98977.39;112683;1193;60927;-82
2021/10/23 00:22:56;;;;;;;5.70;2.60;;;;;;;7.09;58.85;98975.64;112487;1192;64369;-82
2021/10/23 00:25:23;;;;;;;8.40;2.70;;;;;;;7.10;58.81;98979.84;112667;1191;61039;-82
2021/10/23 00:27:49;;;;;;;5.40;2.60;;;;;;;7.10;58.82;98981.56;112617;1193;63632;-84
2021/10/23 00:30:16;;;;;;;7.00;2.30;;;;;;;7.10;58.89;98985.09;112697;1191;60981;-83
2021/10/23 00:32:44;;;;;;;6.50;2.20;;;;;;;7.08;58.89;98980.46;112688;1192;61125;-82
2021/10/23 00:35:10;;;;;;;5.40;2.40;;;;;;;7.02;59.01;98980.03;112685;1192;66985;-83
2021/10/23 00:37:37;;;;;;;5.50;2.60;;;;;;;6.97;59.20;98981.38;112623;1192;61828;-83
2021/10/23 00:40:04;;;;;;;5.80;2.30;;;;;;;6.91;59.27;98977.44;112708;1192;63680;-83
2021/10/23 00:42:33;;;;;;;5.20;3.00;;;;;;;6.86;59.33;98978.08;112709;1193;60942;-82
2021/10/23 00:45:00;;;;;;;6.80;3.00;;;;;;;6.80;59.44;98986.50;112736;1192;61022;-83
2021/10/23 00:47:27;;;;;;;6.80;2.70;;;;;;;6.74;59.70;98989.08;112812;1192;65731;-84
2021/10/23 00:49:54;;;;;;;4.80;2.50;;;;;;;6.71;59.81;98993.52;112700;1192;61008;-83
2021/10/23 00:52:22;;;;;;;8.20;2.60;;;;;;;6.68;59.86;98995.57;112656;1192;63086;-85
2021/10/23 00:54:50;;;;;;;5.70;2.30;;;;;;;6.66;60.05;99002.92;112736;1193;61046;-85
2021/10/23 00:57:17;;;;;;;6.60;2.40;;;;;;;6.67;60.18;99013.30;112651;1191;61026;-84
2021/10/23 00:59:44;;;;;;;7.00;2.80;;;;;;;6.69;60.32;99021.69;112655;1192;65922;-84
2021/10/23 01:02:11;;;;;;;3.00;2.10;;;;;;;6.71;60.37;99026.16;112698;1192;61045;-85
2021/10/23 01:04:40;;;;;;;6.00;2.30;;;;;;;6.73;60.54;99025.67;112661;1193;65554;-84
2021/10/23 01:07:08;;;;;;;7.60;2.30;;;;;;;6.73;60.58;99025.52;112705;1192;61049;-84
2021/10/23 01:09:38;;;;;;;6.70;2.50;;;;;;;6.70;60.75;99029.73;112710;1192;61048;-82
2021/10/23 01:12:07;;;;;;;5.10;2.50;;;;;;;6.67;60.83;99033.75;112683;1193;66056;-82
2021/10/23 01:14:33;;;;;;;5.90;2.70;;;;;;;6.66;60.98;99040.02;112702;1192;61039;-82
2021/10/23 01:17:00;;;;;;;5.70;2.20;;;;;;;6.63;61.19;99042.42;112628;1192;60943;-82
2021/10/23 01:19:27;;;;;;;8.50;2.90;;;;;;;6.60;61.31;99042.79;112499;1192;60969;-82
2021/10/23 01:21:54;;;;;;;4.40;2.20;;;;;;;6.54;61.42;99044.33;112661;1193;61029;-82
2021/10/23 01:24:21;;;;;;;5.80;3.00;;;;;;;6.46;61.58;99048.08;112706;1192;66057;-84
2021/10/23 01:26:48;;;;;;;6.00;2.50;;;;;;;6.40;61.78;99057.55;112614;1192;60946;-82
2021/10/23 01:29:18;;;;;;;5.90;2.50;;;;;;;6.36;61.93;99070.63;112463;1193;62775;-82
2021/10/23 01:31:45;;;;;;;;;;;;;;;6.32;62.18;99069.90;112696;1192;61073;-82
2021/10/23 01:34:15;;;;;;;6.50;2.10;;;;;;;6.34;62.35;99071.06;112726;1192;60984;-82
2021/10/23 01:36:56;;;;;;;6.70;2.70;;;;;;;6.38;62.48;99072.96;112631;1192;64427;-83
2021/10/23 01:39:24;;;;;;;6.10;2.40;;;;;;;6.44;62.57;99077.47;112674;1193;60965;-83
2021/10/23 01:41:51;;;;;;;6.70;2.80;;;;;;;6.48;62.63;99082.02;112626;1192;63992;-83
2021/10/23 01:44:22;;;;;;;4.40;2.20;;;;;;;6.53;62.63;99086.55;112652;1193;61026;-84
2021/10/23 01:46:49;;;;;;;7.30;3.00;;;;;;;6.57;62.70;99089.15;112656;1191;61046;-82
2021/10/23 01:49:15;;;;;;;6.00;2.40;;;;;;;6.63;62.75;99094.02;112685;1192;65393;-83
2021/10/23 01:51:42;;;;;;;7.80;2.70;;;;;;;6.67;62.88;99093.27;112290;1193;61036;-83
2021/10/23 01:54:10;;;;;;;5.20;2.20;;;;;;;6.71;62.82;99096.76;112645;1192;64674;-82
2021/10/23 01:56:39;;;;;;;5.60;3.00;;;;;;;6.75;62.72;99094.61;112681;1192;61075;-82
2021/10/23 01:59:08;;;;;;;6.80;2.70;;;;;;;6.79;62.79;99092.33;112719;1192;60984;-82
2021/10/23 02:01:34;;;;;;;4.70;2.50;;;;;;;6.80;62.79;99099.86;112667;1193;66622;-82
2021/10/23 02:04:01;;;;;;;4.80;2.60;;;;;;;6.81;62.75;99109.36;112688;1192;61006;-82
2021/10/23 02:06:28;;;;;;;7.80;3.00;;;;;;;6.82;62.76;99114.27;112732;1193;61087;-82
2021/10/23 02:08:55;;;;;;;5.70;2.40;;;;;;;6.83;62.94;99122.68;112648;1193;61057;-83
2021/10/23 02:11:22;;;;;;;7.60;3.00;;;;;;;6.83;62.94;99127.80;112653;1192;60943;-83
2021/10/23 02:13:48;;;;;;;5.80;2.40;;;;;;;6.81;63.01;99136.71;112462;1193;64346;-84
2021/10/23 02:16:15;;;;;;;8.80;3.20;;;;;;;6.81;63.14;99149.62;112497;1193;61068;-84
2021/10/23 02:18:42;;;;;;;6.50;2.80;;;;;;;6.80;63.30;99156.69;112708;1192;62783;-84
2021/10/23 02:21:11;;;;;;;6.70;3.10;;;;;;;6.80;63.51;99153.37;112673;1193;61039;-83
2021/10/23 02:23:38;;;;;;;3.80;2.80;;;;;;;6.75;63.51;99160.13;112694;1193;61129;-83
2021/10/23 02:26:05;;;;;;;6.10;2.60;;;;;;;6.68;63.92;99161.02;112599;1193;67030;-83
2021/10/23 02:28:32;;;;;;;5.60;3.40;;;;;;;6.62;64.12;99159.72;112696;1192;61033;-85
2021/10/23 02:30:59;;;;;;;6.00;3.00;;;;;;;6.55;64.18;99167.14;112544;1192;63815;-82
2021/10/23 02:33:25;;;;;;;10.10;3.40;;;;;;;6.47;64.51;99172.98;112693;1193;61100;-82
2021/10/23 02:35:52;;;;;;;5.10;3.00;;;;;;;6.40;64.62;99178.95;112632;1192;61012;-82
2021/10/23 02:38:19;;;;;;;7.30;2.90;;;;;;;6.32;64.80;99186.02;112762;1192;67048;-82
2021/10/23 02:40:45;;;;;;;8.00;3.40;;;;;;;6.26;65.24;99193.19;112658;1193;61023;-82
2021/10/23 02:43:12;;;;;;;7.30;2.90;;;;;;;6.23;65.41;99194.89;112705;1193;64792;-82
2021/10/23 02:45:38;;;;;;;5.50;2.50;;;;;;;6.23;65.55;99195.09;112645;1192;61074;-85
2021/10/23 02:48:05;;;;;;;6.80;3.30;;;;;;;6.21;65.73;99197.48;112682;1192;61052;-83
2021/10/23 02:50:32;;;;;;;5.40;2.10;;;;;;;6.17;66.22;99202.27;112704;1191;65968;-83
2021/10/23 02:52:59;;;;;;;5.40;1.90;;;;;;;6.15;66.70;99208.30;112617;1192;61027;-84
2021/10/23 02:55:26;;;;;;;4.90;2.30;;;;;;;6.15;66.98;99209.90;112607;1193;63783;-83
2021/10/23 02:57:52;;;;;;;6.00;2.80;;;;;;;6.11;66.97;99210.80;112670;1191;60985;-84
2021/10/23 03:00:21;;;;;;;4.40;2.90;;;;;;;6.05;67.11;99210.38;112704;1193;61030;-82
2021/10/23 03:02:49;;;;;;;6.00;2.80;;;;;;;5.97;67.13;99217.59;112697;1192;64780;-82
2021/10/23 03:05:16;;;;;;;4.30;2.20;;;;;;;5.88;67.24;99218.69;112630;1193;61378;-84
2021/10/23 03:07:43;;;;;;;5.80;2.60;;;;;;;5.77;67.56;99221.80;112449;1193;62350;-83
2021/10/23 03:10:10;;;;;;;9.30;3.70;;;;;;;5.67;67.75;99219.04;112768;1193;61100;-85
2021/10/23 03:12:36;;;;;;;8.90;3.20;;;;;;;5.58;67.94;99219.46;112735;1193;60946;-84
2021/10/23 03:15:04;;;;;;;4.40;2.90;;;;;;;5.51;68.20;99223.29;112475;1193;64797;-83
2021/10/23 03:17:30;;;;;;;7.20;3.00;;;;;;;5.46;68.36;99227.73;112672;1192;60995;-83
2021/10/23 03:19:57;;;;;;;6.80;3.80;;;;;;;5.41;68.56;99228.63;112698;1193;63934;-84
2021/10/23 03:22:25;;;;;;;6.90;3.80;;;;;;;5.38;68.90;99224.53;112633;1192;61074;-84
2021/10/23 03:24:52;;;;;;;8.60;2.70;;;;;;;5.36;69.01;99231.51;112713;1193;61343;-83
2021/10/23 03:27:22;;;;;;;7.10;2.60;;;;;;;5.33;69.22;99231.96;112504;1193;64637;-82
2021/10/23 03:29:52;;;;;;;6.10;2.20;;;;;;;5.30;69.54;99228.92;112602;1192;60972;-85
2021/10/23 03:32:19;;;;;;;5.90;2.20;;;;;;;5.28;69.74;99229.70;112549;1193;64003;-83
2021/10/23 03:34:46;;;;;;;5.10;2.20;;;;;;;5.26;69.79;99230.30;112681;1192;61039;-83
2021/10/23 03:37:13;;;;;;;5.70;1.80;;;;;;;5.25;69.93;99234.23;112697;1192;61071;-83
2021/10/23 03:39:40;;;;;;;7.50;1.60;;;;;;;5.24;70.11;99234.96;112734;1191;60975;-83
2021/10/23 03:42:06;;;;;;;4.90;1.40;;;;;;;5.26;70.28;99235.06;112724;1193;61029;-83
2021/10/23 03:44:33;;;;;;;3.60;1.40;;;;;;;5.26;70.15;99233.98;112619;1193;62613;-83
2021/10/23 03:47:01;;;;;;;4.20;1.40;;;;;;;5.25;70.37;99237.23;112687;1192;61022;-85
2021/10/23 03:49:27;;;;;;;5.40;1.40;;;;;;;5.22;70.50;99241.40;112702;1192;61071;-81
2021/10/23 03:51:54;;;;;;;5.20;1.60;;;;;;;5.19;70.55;99243.08;112637;1192;66912;-83
2021/10/23 03:54:21;;;;;;;6.30;1.80;;;;;;;5.17;70.48;99248.48;112735;1177;60977;-85
2021/10/23 03:56:47;;;;;;;4.50;1.60;;;;;;;5.13;70.74;99254.64;112679;1193;62440;-83
2021/10/23 03:59:14;;;;;;;5.20;1.70;;;;;;;5.09;70.84;99258.31;112707;1192;60978;-83
2021/10/23 04:01:41;;;;;;;5.50;1.50;;;;;;;5.05;71.06;99256.70;112629;1191;60966;-83
2021/10/23 04:04:08;;;;;;;2.70;1.70;;;;;;;5.03;71.16;99259.27;112660;1192;66102;-83
2021/10/23 04:06:35;;;;;;;4.50;1.70;;;;;;;5.00;71.30;99264.30;112643;1192;60901;-83
2021/10/23 04:09:02;;;;;;;3.80;1.70;;;;;;;4.97;71.36;99268.29;112659;1193;63637;-83
2021/10/23 04:11:29;;;;;;;5.20;2.50;;;;;;;4.93;71.45;99270.77;112672;1192;61023;-85
2021/10/23 04:13:55;;;;;;;7.40;2.40;;;;;;;4.88;71.62;99280.98;112705;1192;59771;-84
2021/10/23 04:16:22;;;;;;;8.20;3.10;;;;;;;4.82;71.71;99286.66;112646;1192;65996;-82
2021/10/23 04:18:48;;;;;;;7.90;3.00;;;;;;;4.76;71.77;99287.23;112675;1192;60946;-84
2021/10/23 04:21:15;;;;;;;9.80;2.90;;;;;;;4.70;71.99;99293.29;112596;1192;64267;-83
2021/10/23 04:23:42;;;;;;;4.30;2.10;;;;;;;4.67;72.25;99298.68;112623;1192;61016;-85
2021/10/23 04:26:08;;;;;;;6.10;2.70;;;;;;;4.66;72.39;99299.09;112509;1193;61061;-83
2021/10/23 04:28:35;;;;;;;2.60;1.80;;;;;;;4.66;72.51;99302.59;112689;1193;61058;-82
2021/10/23 04:31:02;;;;;;;6.40;2.20;;;;;;;4.68;72.57;99302.88;112699;1193;61071;-83
2021/10/23 04:33:28;;;;;;;3.10;2.50;;;;;;;4.69;72.63;99298.77;112695;1192;62412;-83
2021/10/23 04:35:55;;;;;;;7.60;2.40;;;;;;;4.70;72.65;99300.86;112661;1193;60979;-83
2021/10/23 04:38:22;;;;;;;5.10;1.80;;;;;;;4.70;72.62;99302.80;112725;1192;61039;-83
2021/10/23 04:40:48;;;;;;;8.90;2.30;;;;;;;4.68;72.79;99303.03;112430;1192;65765;-84
2021/10/23 04:43:15;;;;;;;5.00;1.90;;;;;;;4.67;72.93;99308.20;112684;1193;61042;-84
2021/10/23 04:45:42;;;;;;;4.60;1.90;;;;;;;4.66;72.98;99306.48;112450;1193;62501;-84
2021/10/23 04:48:09;;;;;;;6.00;2.80;;;;;;;4.65;73.03;99305.09;112693;1192;61039;-84
2021/10/23 04:50:35;;;;;;;5.70;2.50;;;;;;;4.64;73.05;99309.54;112483;1192;61004;-82
2021/10/23 04:53:02;;;;;;;7.10;2.80;;;;;;;4.62;73.26;99310.14;112607;1192;66835;-83
2021/10/23 04:55:28;;;;;;;5.10;2.50;;;;;;;4.59;73.40;99314.11;112669;1192;61656;-83
2021/10/23 04:57:57;;;;;;;4.30;2.80;;;;;;;4.55;73.53;99321.65;112454;1193;60973;-83
2021/10/23 05:00:25;;;;;;;4.30;2.90;;;;;;;4.52;73.75;99325.27;112688;1193;61093;-82
2021/10/23 05:02:52;;;;;;;6.40;3.00;;;;;;;4.50;73.82;99328.02;112721;1193;61029;-82
2021/10/23 05:05:19;;;;;;;6.30;2.40;;;;;;;4.45;73.92;99331.38;112633;1193;66810;-83
2021/10/23 05:07:45;;;;;;;6.40;2.60;;;;;;;4.39;74.04;99336.64;112548;1192;60930;-83
2021/10/23 05:10:15;;;;;;;4.40;2.50;;;;;;;4.37;74.38;99347.30;112675;1192;61094;-82
2021/10/23 05:12:41;;;;;;;5.80;3.00;;;;;;;4.36;74.56;99347.34;112654;1192;61054;-83
2021/10/23 05:15:08;;;;;;;5.80;2.90;;;;;;;4.36;74.76;99355.06;112702;1193;61030;-83
2021/10/23 05:17:35;;;;;;;6.20;3.20;;;;;;;4.36;74.98;99354.68;112460;1193;66049;-83
2021/10/23 05:20:04;;;;;;;8.00;3.30;;;;;;;4.37;75.09;99356.78;112655;1193;61039;-82
2021/10/23 05:22:31;;;;;;;8.40;3.40;;;;;;;4.37;75.21;99358.20;112675;1192;64004;-84
2021/10/23 05:24:58;;;;;;;8.30;3.80;;;;;;;4.36;75.24;99361.73;112582;1191;61071;-83
2021/10/23 05:27:24;;;;;;;7.10;3.70;;;;;;;4.37;75.42;99367.17;112658;1192;60966;-85
2021/10/23 05:29:51;;;;;;;6.10;3.20;;;;;;;4.38;75.47;99373.45;112698;1193;66989;-85
2021/10/23 05:32:17;;;;;;;8.60;4.10;;;;;;;4.39;75.54;99376.23;112670;1193;60994;-83
2021/10/23 05:34:45;;;;;;;10.40;3.90;;;;;;;4.41;75.46;99381.45;112686;1193;60969;-83
2021/10/23 05:37:12;;;;;;;7.80;3.90;;;;;;;4.43;75.51;99387.52;112488;1194;61075;-83
2021/10/23 05:39:39;;;;;;;9.20;4.10;;;;;;;4.46;75.53;99392.00;112494;1192;61055;-83
2021/10/23 05:42:05;;;;;;;7.20;4.50;;;;;;;4.50;75.57;99393.44;112674;1193;66091;-82
2021/10/23 05:44:32;;;;;;;11.80;5.90;;;;;;;4.55;75.55;99391.70;112691;1193;60937;-83
2021/10/23 05:46:58;;;;;;;18.90;8.90;;;;;;;4.60;75.56;99395.75;112669;1192;60968;-83
2021/10/23 05:49:26;;;;;;;17.20;9.00;;;;;;;4.65;75.48;99395.75;112657;1192;61125;-83
2021/10/23 05:51:54;;;;;;;14.00;7.30;;;;;;;4.68;75.47;99407.41;112459;1192;61017;-84
2021/10/23 05:54:21;;;;;;;12.00;6.40;;;;;;;4.71;75.44;99407.46;112654;1192;64509;-82
2021/10/23 05:56:48;;;;;;;10.20;5.40;;;;;;;4.76;75.38;99409.20;112686;1194;61068;-83
2021/10/23 05:59:15;;;;;;;5.50;3.80;;;;;;;4.82;75.39;99409.73;112655;1193;64012;-82
2021/10/23 06:01:47;;;;;;;5.70;3.40;;;;;;;4.88;75.23;99417.42;112574;1192;61022;-83
2021/10/23 06:04:14;;;;;;;5.70;2.90;;;;;;;4.94;75.21;99418.79;112676;1193;60968;-83
2021/10/23 06:06:44;;;;;;;6.70;3.90;;;;;;;5.03;75.12;99417.23;112648;1193;65673;-83
2021/10/23 06:09:10;;;;;;;7.20;3.60;;;;;;;5.12;74.92;99421.27;112684;1184;61081;-82
2021/10/23 06:11:37;;;;;;;8.50;3.70;;;;;;;5.21;74.89;99422.00;112667;1192;61007;-84
2021/10/23 06:14:04;;;;;;;6.80;3.40;;;;;;;5.27;74.86;99425.27;112693;1193;61068;-84
2021/10/23 06:16:30;;;;;;;8.30;4.70;;;;;;;5.33;74.69;99428.95;112680;1192;60939;-84
2021/10/23 06:18:57;;;;;;;10.70;5.70;;;;;;;5.36;74.60;99432.87;112676;1192;66743;-84
2021/10/23 06:21:23;;;;;;;10.80;6.50;;;;;;;5.42;74.54;99437.76;112742;1192;60918;-84
2021/10/23 06:23:50;;;;;;;11.50;6.20;;;;;;;5.48;74.50;99442.97;112630;1192;60978;-84
2021/10/23 06:26:16;;;;;;;7.00;4.40;;;;;;;5.55;74.41;99443.42;112654;1192;60982;-84
2021/10/23 06:28:43;;;;;;;8.30;4.60;;;;;;;5.63;74.34;99442.04;112783;1193;61004;-84
2021/10/23 06:31:09;;;;;;;6.80;3.90;;;;;;;5.73;74.26;99449.39;112597;1193;60975;-83
2021/10/23 06:33:36;;;;;;;9.00;3.60;;;;;;;5.84;74.21;99452.50;112669;1193;61148;-83
2021/10/23 06:36:03;;;;;;;7.00;3.80;;;;;;;5.96;74.18;99451.69;112544;1193;61989;-85
2021/10/23 06:38:29;;;;;;;6.00;3.40;;;;;;;6.04;74.12;99453.80;112648;1192;61045;-82
2021/10/23 06:40:56;;;;;;;5.80;3.80;;;;;;;6.10;74.01;99456.05;112502;1193;60952;-84
2021/10/23 06:43:24;;;;;;;4.80;3.30;;;;;;;6.14;73.95;99454.46;112734;1193;61058;-83
2021/10/23 06:45:52;;;;;;;6.20;3.40;;;;;;;6.21;73.90;99455.77;112619;1193;61052;-82
2021/10/23 06:48:19;;;;;;;5.40;3.70;;;;;;;6.30;73.93;99454.34;112660;1191;62657;-83
2021/10/23 06:50:47;;;;;;;9.00;4.00;;;;;;;6.42;73.83;99455.05;112388;1193;61056;-83
2021/10/23 06:53:13;;;;;;;6.90;3.70;;;;;;;6.56;73.62;99456.23;112644;1193;61106;-83
2021/10/23 06:55:40;;;;;;;6.30;3.90;;;;;;;6.66;73.44;99459.31;112491;1192;66689;-83
2021/10/23 06:58:07;;;;;;;5.30;3.70;;;;;;;6.73;73.29;99465.73;112676;1193;61055;-83
2021/10/23 07:00:33;;;;;;;7.70;3.70;;;;;;;6.77;73.31;99471.55;112694;1191;63978;-83
2021/10/23 07:03:00;;;;;;;7.10;3.60;;;;;;;6.79;73.21;99470.23;112621;1192;61049;-83
2021/10/23 07:05:28;;;;;;;8.00;3.50;;;;;;;6.77;73.09;99475.77;112699;1192;61045;-83
2021/10/23 07:07:54;;;;;;;6.30;3.40;;;;;;;6.73;73.09;99476.14;112655;1180;65461;-86
2021/10/23 07:10:21;;;;;;;4.80;3.30;;;;;;;6.68;73.14;99482.55;112686;1192;61136;-83
2021/10/23 07:12:47;;;;;;;7.20;4.00;;;;;;;6.65;73.19;99477.39;112699;1192;64382;-83
2021/10/23 07:15:14;;;;;;;6.10;3.80;;;;;;;6.65;73.20;99480.55;112622;1192;61071;-83
2021/10/23 07:17:42;;;;;;;6.20;2.90;;;;;;;6.68;73.14;99482.20;112711;1192;60937;-83
2021/10/23 07:20:09;;;;;;;6.50;4.00;;;;;;;6.75;73.13;99484.86;112646;1193;65779;-84
2021/10/23 07:22:36;;;;;;;8.10;4.80;;;;;;;6.85;73.12;99494.02;112501;1192;60985;-84
2021/10/23 07:25:05;;;;;;;9.10;4.60;;;;;;;6.94;73.15;99493.42;112607;1177;63835;-84
2021/10/23 07:27:31;;;;;;;6.10;3.10;;;;;;;7.04;73.07;99491.05;112665;1192;61049;-83
2021/10/23 07:29:58;;;;;;;7.10;3.00;;;;;;;7.14;72.72;99491.99;112625;1193;60951;-83
2021/10/23 07:32:24;;;;;;;5.90;3.20;;;;;;;7.26;72.32;99496.06;112665;1192;66115;-84
2021/10/23 07:34:51;;;;;;;7.20;2.90;;;;;;;7.43;72.23;99499.32;112516;1192;61173;-84
2021/10/23 07:37:17;;;;;;;6.20;3.40;;;;;;;7.68;71.74;99497.48;112604;1193;63670;-84
2021/10/23 07:39:44;;;;;;;7.70;2.90;;;;;;;7.92;71.05;99497.38;112687;1191;61525;-83
2021/10/23 07:42:10;;;;;;;6.40;3.40;;;;;;;8.14;70.64;99499.66;112660;1191;60981;-84
2021/10/23 07:44:37;;;;;;;7.10;2.40;;;;;;;8.41;69.85;99497.86;112518;1193;61040;-84
2021/10/23 07:47:04;;;;;;;8.70;3.60;;;;;;;8.60;68.69;99496.22;112639;1193;60963;-83
2021/10/23 07:49:30;;;;;;;5.20;2.50;;;;;;;8.73;68.44;99495.17;112647;1192;63818;-83
2021/10/23 07:51:57;;;;;;;5.40;2.40;;;;;;;8.89;67.85;99496.67;112677;1192;61042;-83
2021/10/23 07:54:23;;;;;;;5.40;2.60;;;;;;;8.95;67.27;99501.30;112528;1192;61013;-83
2021/10/23 07:56:50;;;;;;;6.40;2.50;;;;;;;8.91;66.89;99508.27;112534;1192;61145;-83
2021/10/23 07:59:16;;;;;;;4.10;1.90;;;;;;;8.86;66.78;99512.23;112664;1192;61020;-83
2021/10/23 08:01:43;;;;;;;5.40;2.40;;;;;;;8.83;66.41;99513.48;112675;1193;62972;-84
2021/10/23 08:04:10;;;;;;;5.30;2.90;;;;;;;8.91;66.42;99509.67;112633;1192;61030;-84
2021/10/23 08:06:37;;;;;;;5.90;2.20;;;;;;;9.08;66.05;99513.08;112668;1192;61058;-83
2021/10/23 08:09:11;;;;;;;6.30;2.40;;;;;;;9.16;65.17;99515.98;112669;1192;61055;-83
2021/10/23 08:11:44;;;;;;;4.90;2.40;;;;;;;9.25;65.33;99518.19;112508;1193;61259;-83
2021/10/23 08:14:14;;;;;;;7.80;3.80;;;;;;;9.38;65.15;99513.90;112599;1193;62481;-84
2021/10/23 08:16:41;;;;;;;6.00;3.40;;;;;;;9.49;65.02;99515.63;112684;1193;61049;-84
2021/10/23 08:19:08;;;;;;;7.00;2.90;;;;;;;9.56;64.97;99519.86;112645;1192;61016;-84
2021/10/23 08:21:36;;;;;;;4.30;2.00;;;;;;;9.60;64.12;99520.19;112809;1193;67070;-83
2021/10/23 08:24:03;;;;;;;4.70;2.50;;;;;;;9.64;64.08;99520.34;112623;1193;61086;-84
2021/10/23 08:26:30;;;;;;;6.60;2.30;;;;;;;9.75;63.55;99531.42;112635;1193;64661;-84
2021/10/23 08:28:56;;;;;;;5.00;2.40;;;;;;;9.83;63.11;99535.24;112684;1192;61111;-84
2021/10/23 08:31:24;;;;;;;6.90;2.90;;;;;;;9.83;62.94;99530.11;112587;1192;61049;-84
2021/10/23 08:33:52;;;;;;;5.30;2.00;;;;;;;9.83;62.93;99535.46;112665;1192;74527;-85
2021/10/23 08:36:18;;;;;;;5.80;2.80;;;;;;;9.81;62.59;99534.27;112614;1193;69360;-84
2021/10/23 08:38:44;;;;;;;4.40;2.10;;;;;;;9.75;62.22;99536.58;112701;1193;61106;-84
2021/10/23 08:41:12;;;;;;;8.00;2.70;;;;;;;9.67;62.09;99543.95;112675;1192;61754;-84
2021/10/23 08:43:42;;;;;;;6.30;2.90;;;;;;;9.58;62.27;99536.44;112694;1193;60965;-84
2021/10/23 08:46:14;;;;;;;5.30;3.00;;;;;;;9.58;62.69;99533.77;112500;1193;66050;-84
2021/10/23 08:48:45;;;;;;;5.00;2.40;;;;;;;9.74;62.19;99535.04;112548;1193;61113;-84
2021/10/23 08:51:12;;;;;;;6.00;2.60;;;;;;;10.01;61.84;99535.67;112653;1192;62657;-84
2021/10/23 08:53:40;;;;;;;7.80;2.60;;;;;;;10.15;61.37;99542.00;112590;1192;61054;-83
2021/10/23 08:56:08;;;;;;;6.70;2.30;;;;;;;10.14;61.16;99542.24;112674;1192;61007;-83
2021/10/23 08:58:35;;;;;;;6.10;2.20;;;;;;;10.11;60.85;99548.44;112723;1192;65824;-83
2021/10/23 09:01:03;;;;;;;7.00;2.40;;;;;;;10.10;60.67;99551.85;112683;1194;61049;-82
2021/10/23 09:03:30;;;;;;;7.00;2.40;;;;;;;10.10;60.63;99553.25;112623;1193;63659;-83
2021/10/23 09:05:57;;;;;;;7.80;3.30;;;;;;;10.08;60.68;99556.21;112599;1192;61071;-83
2021/10/23 09:08:25;;;;;;;6.40;2.30;;;;;;;9.97;60.21;99552.93;112657;1193;61055;-84
2021/10/23 09:10:53;;;;;;;7.10;2.60;;;;;;;9.82;60.19;99563.89;112637;1193;65950;-83
2021/10/23 09:13:31;;;;;;;10.80;2.40;;;;;;;9.71;60.27;99565.39;112629;1193;60927;-84
2021/10/23 09:16:14;;;;;;;8.40;2.60;;;;;;;9.71;60.05;99559.50;112666;1193;63915;-83
2021/10/23 09:18:44;;;;;;;7.00;3.00;;;;;;;9.83;59.94;99556.91;112516;1192;60981;-83
2021/10/23 09:21:18;;;;;;;7.10;2.40;;;;;;;9.96;59.94;99554.95;112667;1192;60972;-83
2021/10/23 09:23:46;;;;;;;6.60;2.30;;;;;;;10.10;59.68;99565.53;112669;1192;66710;-86
2021/10/23 09:26:30;;;;;;;5.70;2.40;;;;;;;10.21;59.14;99565.98;112628;1184;61128;-83
2021/10/23 09:29:18;;;;;;;8.50;2.80;;;;;;;10.30;58.82;99567.60;112613;1192;64943;-82
2021/10/23 09:31:49;;;;;;;6.10;1.90;;;;;;;10.35;58.42;99563.98;112702;1193;61023;-84
2021/10/23 09:34:17;;;;;;;7.70;2.60;;;;;;;10.38;58.01;99562.75;112594;1193;61014;-82
2021/10/23 09:36:53;;;;;;;10.20;3.40;;;;;;;10.42;58.49;99569.26;112675;1193;64715;-83
2021/10/23 09:39:33;;;;;;;9.40;3.20;;;;;;;10.58;58.63;99568.86;112623;1192;61058;-82
2021/10/23 09:42:16;;;;;;;7.00;2.60;;;;;;;10.86;58.25;99573.80;112660;1193;62326;-83
2021/10/23 09:45:04;;;;;;;6.50;2.80;;;;;;;10.97;57.62;99571.38;112696;1193;61046;-81
2021/10/23 09:47:44;;;;;;;8.10;2.50;;;;;;;11.05;56.92;99572.15;112619;1193;61033;-82
2021/10/23 09:50:21;;;;;;;9.70;3.50;;;;;;;10.97;56.16;99572.64;112655;1192;64667;-82
2021/10/23 09:53:02;;;;;;;6.20;2.50;;;;;;;10.82;56.36;99576.89;112693;1192;60965;-83
2021/10/23 09:55:52;;;;;;;8.50;2.90;;;;;;;10.72;56.49;99581.55;112653;1194;63638;-84
2021/10/23 09:58:25;;;;;;;7.70;2.80;;;;;;;10.65;56.79;99578.06;112814;1192;61020;-83
2021/10/23 10:00:54;;;;;;;7.90;2.80;;;;;;;10.53;56.64;99580.89;112549;1192;61516;-83
2021/10/23 10:03:25;;;;;;;10.40;2.90;;;;;;;10.38;56.99;99586.57;112528;1193;65646;-82
2021/10/23 10:05:59;;;;;;;8.60;2.90;;;;;;;10.26;57.02;99589.30;112711;1184;61058;-83
2021/10/23 10:08:27;;;;;;;5.80;2.70;;;;;;;10.21;57.19;99584.83;112646;1192;63672;-83
2021/10/23 10:10:55;;;;;;;9.30;3.20;;;;;;;10.24;57.24;99581.63;112640;1192;60971;-83
2021/10/23 10:13:25;;;;;;;7.60;2.80;;;;;;;10.22;57.50;99575.84;112714;1193;61062;-82
2021/10/23 10:15:55;;;;;;;10.40;3.60;;;;;;;10.17;58.09;99581.50;112681;1192;66070;-82
2021/10/23 10:18:24;;;;;;;10.60;3.80;;;;;;;10.07;58.19;99578.14;112547;1192;61087;-82
2021/10/23 10:20:56;;;;;;;6.10;3.70;;;;;;;9.98;58.00;99579.70;112703;1192;62522;-82
2021/10/23 10:23:33;;;;;;;8.50;4.10;;;;;;;9.99;58.22;99583.20;112663;1193;61049;-82
2021/10/23 10:26:19;;;;;;;8.50;3.20;;;;;;;10.12;58.23;99589.58;112633;1193;60936;-84
2021/10/23 10:29:27;;;;;;;5.90;3.10;;;;;;;10.24;58.23;99591.56;112716;1192;64353;-82
2021/10/23 10:32:16;;;;;;;18.00;3.70;;;;;;;10.26;57.86;99593.59;112658;1193;60943;-84
2021/10/23 10:40:13;;;;;;;11.40;3.60;;;;;;;10.33;57.76;99587.35;112685;1193;61055;-82
2021/10/23 10:42:51;;;;;;;7.00;2.50;;;;;;;10.47;57.49;99585.88;112690;1192;66051;-83
2021/10/23 10:45:41;;;;;;;7.00;3.10;;;;;;;10.53;57.34;99593.34;112734;1191;61026;-82
2021/10/23 10:48:20;;;;;;;9.70;3.50;;;;;;;10.61;57.23;99595.36;112531;1191;62723;-85
2021/10/23 10:50:53;;;;;;;8.50;2.70;;;;;;;10.73;57.11;99596.29;112713;1192;60997;-84
2021/10/23 10:53:29;;;;;;;8.30;3.10;;;;;;;10.83;56.83;99593.92;112679;1193;61055;-83
2021/10/23 10:55:59;;;;;;;7.40;3.30;;;;;;;10.90;56.85;99591.89;112709;1193;64508;-84
2021/10/23 10:58:55;;;;;;;8.40;3.40;;;;;;;10.96;56.80;99590.67;112651;1192;61043;-83
2021/10/23 11:01:22;;;;;;;7.80;3.30;;;;;;;11.07;56.49;99587.17;112597;1192;63637;-84
2021/10/23 11:04:06;;;;;;;8.50;3.30;;;;;;;11.19;56.16;99589.30;112604;1193;61057;-83
2021/10/23 11:06:45;;;;;;;7.30;3.10;;;;;;;11.26;55.80;99583.54;112662;1192;60930;-83
2021/10/23 11:09:12;;;;;;;12.80;3.60;;;;;;;11.23;55.64;99577.70;112620;1192;66019;-84
2021/10/23 11:11:45;;;;;;;9.00;3.10;;;;;;;11.15;55.53;99578.50;112649;1193;62393;-85
2021/10/23 11:14:24;;;;;;;5.30;2.10;;;;;;;11.08;54.65;99584.09;112646;1193;64188;-84
2021/10/23 11:16:57;;;;;;;8.50;2.10;;;;;;;11.03;54.66;99584.19;112600;1192;61055;-84
2021/10/23 11:19:31;;;;;;;5.60;2.00;;;;;;;11.03;54.73;99585.27;112710;1192;60987;-82
2021/10/23 11:22:09;;;;;;;7.70;2.30;;;;;;;10.98;54.83;99585.75;112669;1193;65758;-84
2021/10/23 11:25:06;;;;;;;6.20;2.50;;;;;;;10.86;54.66;99587.71;112695;1192;60931;-84
2021/10/23 11:27:46;;;;;;;5.90;2.20;;;;;;;10.67;53.84;99593.05;112616;1192;64991;-84
2021/10/23 11:30:33;;;;;;;7.60;2.40;;;;;;;10.56;54.12;99590.70;112667;1192;61081;-84
2021/10/23 11:33:05;;;;;;;9.70;2.80;;;;;;;10.50;53.81;99600.25;112701;1192;60972;-83
2021/10/23 11:35:43;;;;;;;7.00;2.60;;;;;;;10.45;53.45;99604.09;112718;1193;67034;-84
2021/10/23 11:38:22;;;;;;;5.70;1.90;;;;;;;10.41;53.37;99600.25;112741;1193;60972;-83
2021/10/23 11:41:00;;;;;;;5.00;2.10;;;;;;;10.44;53.46;99597.39;112645;1193;62448;-82
2021/10/23 11:43:28;;;;;;;6.30;1.90;;;;;;;10.58;53.38;99597.87;112689;1193;61020;-83
2021/10/23 11:45:54;;;;;;;6.40;2.60;;;;;;;10.73;53.64;99594.65;112612;1193;60926;-83